Millville, Massachusetts
Current Conditions -  °F | °C
As of 11:35 AM on Saturday 22 Nov 2014 (Local Time) from KSFZ Reporting Station
Clear Clear  
Wind Chill: 30°   Ceiling: Unl
Heat Index: 37°   Visibility: 10mi
Dew Point: 12°   Wind: 10mph
Humidity: 36%   Direction: 220°SW
Pressure: 30.28"   Gusts: 18mph
Location:  42.03°N, 71.58°W
Report Text: KSFZ 221635Z 22009G16KT 10SM CLR 03/M11 A3028 RMK AO1
Loading
Personal Weather Stations






























Interactive Weather Map New forecast layout! Learn more

10-Day Weather Forecast

Advertisements
Track Severe Weather on mobile